CheckWX is a tool to help pilots better visualize weather data.  It is not intended as a substitute for an official pre-flight weather briefing.

07:58:08 UTC

KARA TAF
Acadiana Regional Airport
New Iberia, Louisiana, USA
KARA 131120Z 1312/1412 24004KT P6SM SCT035 SCT050 FM131500 27007KT P6SM SCT035 FM131800 27007KT P6SM SCT045 FM140100 22005KT P6SM SCT250

Jul-13@
12:00 UTC

Jul-13 @ 12:00 UTC

Jul-13@
15:00 UTC

Jul-13 @ 15:00 UTC

TAF KARA 131120Z 1312/1412 24004KT P6SM SCT035 SCT050

Expired

Wind
  • 240° at 4 KTS
Cloud Levels
  • Scattered at 3,500' AGL
  • Scattered at 5,000' AGL

Jul-13@
15:00 UTC

Jul-13 @ 15:00 UTC

Jul-13@
18:00 UTC

Jul-13 @ 18:00 UTC

FM131500 27007KT P6SM SCT035

Expired

Wind
  • 270° at 7 KTS
Cloud Levels
  • Scattered at 3,500' AGL

Jul-13@
18:00 UTC

Jul-13 @ 18:00 UTC

Jul-14@
01:00 UTC

Jul-14 @ 01:00 UTC

FM131800 27007KT P6SM SCT045

Expired

Wind
  • 270° at 7 KTS
Cloud Levels
  • Scattered at 4,500' AGL

Jul-14@
01:00 UTC

Jul-14 @ 01:00 UTC

Jul-14@
12:00 UTC

Jul-14 @ 12:00 UTC

FM140100 22005KT P6SM SCT250

From

From Standard forecast or significant change

Wind
  • 220° at 5 KTS
Cloud Levels
  • Scattered at 25,000' AGL